createdAt,value
2023-02-12T00:01:00.991Z,38.92
2023-02-12T00:03:45.961Z,39.20
2023-02-12T00:06:30.750Z,38.65
2023-02-12T00:09:15.628Z,38.94
2023-02-12T00:12:00.353Z,38.40
2023-02-12T00:14:45.158Z,38.57
2023-02-12T00:17:30.208Z,38.93
2023-02-12T00:20:14.890Z,39.57
2023-02-12T00:22:59.633Z,39.03
2023-02-12T00:25:44.411Z,38.77
2023-02-12T00:28:29.409Z,38.70
2023-02-12T00:31:14.579Z,39.79
2023-02-12T00:33:59.916Z,39.33
2023-02-12T00:36:44.716Z,38.89
2023-02-12T00:39:29.492Z,39.51
2023-02-12T00:42:14.282Z,38.76
2023-02-12T00:44:59.149Z,39.30
2023-02-12T00:47:44.501Z,39.54
2023-02-12T00:50:31.704Z,39.12
2023-02-12T00:53:17.096Z,38.75
2023-02-12T00:56:01.811Z,38.42
2023-02-12T00:58:46.587Z,38.27
2023-02-12T01:01:31.350Z,38.10
2023-02-12T01:04:16.106Z,37.38
2023-02-12T01:07:00.779Z,37.94
2023-02-12T01:09:45.441Z,37.80
2023-02-12T01:12:30.233Z,38.19
2023-02-12T01:15:14.911Z,38.15
2023-02-12T01:17:59.686Z,37.38
2023-02-12T01:20:44.505Z,38.28
2023-02-12T01:23:29.281Z,37.96
2023-02-12T01:26:14.117Z,37.67
2023-02-12T01:28:58.841Z,37.57
2023-02-12T01:31:43.796Z,37.43
2023-02-12T01:34:28.743Z,38.41
2023-02-12T01:37:13.601Z,39.29
2023-02-12T01:39:58.367Z,39.59
2023-02-12T01:42:43.177Z,39.43
2023-02-12T01:45:27.864Z,39.23
2023-02-12T01:48:12.524Z,39.59
2023-02-12T01:50:57.390Z,39.68
2023-02-12T01:53:42.214Z,39.35
2023-02-12T01:56:27.111Z,38.97
2023-02-12T01:59:11.774Z,39.55
2023-02-12T02:01:56.562Z,39.79
2023-02-12T02:04:41.222Z,40.25
2023-02-12T02:07:26.096Z,41.00
2023-02-12T02:10:10.922Z,40.25
2023-02-12T02:12:55.887Z,40.40
2023-02-12T02:15:40.657Z,40.65
2023-02-12T02:18:25.361Z,39.68
2023-02-12T02:21:10.116Z,39.89
2023-02-12T02:23:54.845Z,39.65
2023-02-12T02:26:39.766Z,39.78
2023-02-12T02:29:24.338Z,39.71
2023-02-12T02:32:09.239Z,39.07
2023-02-12T02:34:54.312Z,38.70
2023-02-12T02:37:39.075Z,39.69
2023-02-12T02:40:23.834Z,39.85
2023-02-12T02:43:08.730Z,39.90
2023-02-12T02:45:53.733Z,39.96
2023-02-12T02:48:38.588Z,39.02
2023-02-12T02:51:23.345Z,38.92
2023-02-12T02:54:08.019Z,39.18
2023-02-12T02:56:52.722Z,39.63
2023-02-12T02:59:37.389Z,39.17
2023-02-12T03:02:22.369Z,39.38
2023-02-12T03:05:07.173Z,39.69
2023-02-12T03:07:51.982Z,39.76
2023-02-12T03:10:36.724Z,39.46
2023-02-12T03:13:21.602Z,39.42
2023-02-12T03:16:06.357Z,38.72
2023-02-12T03:18:51.102Z,39.03
2023-02-12T03:21:35.727Z,38.62
2023-02-12T03:24:20.441Z,38.45
2023-02-12T03:27:05.211Z,38.16
2023-02-12T03:29:49.982Z,39.09
2023-02-12T03:32:34.858Z,38.70
2023-02-12T03:35:19.504Z,38.50
2023-02-12T03:38:04.286Z,39.07
2023-02-12T03:40:49.087Z,39.24
2023-02-12T03:43:33.914Z,38.71
2023-02-12T03:46:18.718Z,38.52
2023-02-12T03:49:03.958Z,38.93
2023-02-12T03:51:48.771Z,38.14
2023-02-12T03:54:33.575Z,38.53
2023-02-12T03:57:18.431Z,39.18
2023-02-12T04:00:03.100Z,38.56
2023-02-12T04:02:47.784Z,38.55
2023-02-12T04:05:32.269Z,38.82
2023-02-12T04:08:16.982Z,39.55
2023-02-12T04:11:01.851Z,38.48
2023-02-12T04:13:46.733Z,38.83
2023-02-12T04:16:31.651Z,38.72
2023-02-12T04:19:16.888Z,38.68
2023-02-12T04:22:01.548Z,38.94
2023-02-12T04:24:46.291Z,39.07
2023-02-12T04:27:31.052Z,38.82
2023-02-12T04:30:15.720Z,38.62
2023-02-12T04:33:00.386Z,39.67
2023-02-12T04:35:45.108Z,40.67
2023-02-12T04:38:29.971Z,40.90
2023-02-12T04:41:15.091Z,40.83
2023-02-12T04:43:59.905Z,40.39
2023-02-12T04:46:44.710Z,41.03
2023-02-12T04:49:29.457Z,41.00
2023-02-12T04:52:14.178Z,40.85
2023-02-12T04:54:59.149Z,40.71
2023-02-12T04:57:43.917Z,39.46
2023-02-12T05:00:28.750Z,39.40
2023-02-12T05:03:13.467Z,39.16
2023-02-12T05:05:58.160Z,39.87
2023-02-12T05:08:42.793Z,40.28
2023-02-12T05:11:27.462Z,40.27
2023-02-12T05:14:12.232Z,40.00
2023-02-12T05:16:57.017Z,40.40
2023-02-12T05:19:41.802Z,40.92
2023-02-12T05:22:26.623Z,40.80
2023-02-12T05:25:11.346Z,40.62
2023-02-12T05:27:56.199Z,39.90
2023-02-12T05:30:41.024Z,39.70
2023-02-12T05:33:25.806Z,39.14
2023-02-12T05:36:10.623Z,39.38
2023-02-12T05:38:55.403Z,39.10
2023-02-12T05:41:40.199Z,39.12
2023-02-12T05:44:24.837Z,38.77
2023-02-12T05:47:09.726Z,39.25
2023-02-12T05:49:54.386Z,39.29
2023-02-12T05:52:39.102Z,39.23
2023-02-12T05:55:23.754Z,39.12
2023-02-12T05:58:08.679Z,39.23
2023-02-12T06:00:53.447Z,39.91
2023-02-12T06:03:38.152Z,40.00
2023-02-12T06:06:22.829Z,39.51
2023-02-12T06:09:07.664Z,39.69
2023-02-12T06:11:52.496Z,39.44
2023-02-12T06:14:37.358Z,40.00
2023-02-12T06:17:22.057Z,39.98
2023-02-12T06:20:06.757Z,40.50
2023-02-12T06:22:51.452Z,39.89
2023-02-12T06:25:36.201Z,40.15
2023-02-12T06:28:20.992Z,40.91
2023-02-12T06:31:05.857Z,40.76
2023-02-12T06:33:51.042Z,39.91
2023-02-12T06:36:35.765Z,39.32
2023-02-12T06:39:20.544Z,39.81
2023-02-12T06:42:05.307Z,39.05
2023-02-12T06:44:52.668Z,39.59
2023-02-12T06:47:38.116Z,39.96
2023-02-12T06:50:22.738Z,40.21
2023-02-12T06:53:07.520Z,39.04
2023-02-12T06:55:52.231Z,38.86
2023-02-12T06:58:36.892Z,39.16
2023-02-12T07:01:21.658Z,39.04
2023-02-12T07:04:06.509Z,39.08
2023-02-12T07:06:51.771Z,38.40
2023-02-12T07:09:36.595Z,38.74
2023-02-12T07:12:21.380Z,38.69
2023-02-12T07:15:06.006Z,38.08
2023-02-12T07:17:50.903Z,38.28
2023-02-12T07:20:35.662Z,38.48
2023-02-12T07:23:20.494Z,38.47
2023-02-12T07:26:05.227Z,38.25
2023-02-12T07:28:50.034Z,38.00
2023-02-12T07:31:34.779Z,38.42
2023-02-12T07:34:19.778Z,38.14
2023-02-12T07:37:04.617Z,38.63
2023-02-12T07:39:49.344Z,37.94
2023-02-12T07:42:34.163Z,39.25
2023-02-12T07:45:18.912Z,35.31
2023-02-12T07:48:03.584Z,32.59
2023-02-12T07:50:48.347Z,30.81
2023-02-12T07:53:33.043Z,30.06
2023-02-12T07:56:17.853Z,29.38
2023-02-12T07:59:03.235Z,30.48
2023-02-12T08:01:48.076Z,31.64
2023-02-12T08:04:32.778Z,33.47
2023-02-12T08:07:17.488Z,34.20
2023-02-12T08:10:02.229Z,33.89
2023-02-12T08:12:46.959Z,34.90
2023-02-12T08:15:31.684Z,35.04
2023-02-12T08:18:16.405Z,35.57
2023-02-12T08:21:01.255Z,35.50
2023-02-12T08:23:45.924Z,35.62
2023-02-12T08:26:30.850Z,35.41
2023-02-12T08:29:15.725Z,35.82
2023-02-12T08:32:00.655Z,35.90
2023-02-12T08:34:45.725Z,35.59
2023-02-12T08:37:30.543Z,35.73
2023-02-12T08:40:15.214Z,35.87
2023-02-12T08:43:00.037Z,35.45
2023-02-12T08:45:44.771Z,34.93
2023-02-12T08:48:29.442Z,34.60
2023-02-12T08:51:14.137Z,34.83
2023-02-12T08:53:58.906Z,33.60
2023-02-12T08:56:43.674Z,34.01
2023-02-12T08:59:28.395Z,33.60
2023-02-12T09:02:13.288Z,33.95
2023-02-12T09:04:57.935Z,34.41
2023-02-12T09:07:42.796Z,32.93
2023-02-12T09:10:27.550Z,32.89
2023-02-12T09:13:13.472Z,33.32
2023-02-12T09:15:58.459Z,32.56
2023-02-12T09:18:43.376Z,31.98
2023-02-12T09:21:28.212Z,31.19
2023-02-12T09:24:13.061Z,30.49
2023-02-12T09:26:57.894Z,31.78
2023-02-12T09:29:42.800Z,31.11
2023-02-12T09:32:27.394Z,30.81
2023-02-12T09:35:12.027Z,31.24
2023-02-12T09:37:56.874Z,31.50
2023-02-12T09:40:41.602Z,30.99
2023-02-12T09:43:26.345Z,31.51
2023-02-12T09:46:11.240Z,31.50
2023-02-12T09:48:55.998Z,32.63
2023-02-12T09:51:40.704Z,32.14
2023-02-12T09:54:25.335Z,31.49
2023-02-12T09:57:10.170Z,31.65
2023-02-12T09:59:54.830Z,30.18
2023-02-12T10:02:39.568Z,30.15
2023-02-12T10:05:24.236Z,29.64
2023-02-12T10:08:09.021Z,30.43
2023-02-12T10:10:53.845Z,30.73
2023-02-12T10:13:38.571Z,29.72
2023-02-12T10:16:23.350Z,28.94
2023-02-12T10:19:07.949Z,29.92
2023-02-12T10:21:52.532Z,30.61
2023-02-12T10:24:37.234Z,31.94
2023-02-12T10:27:21.805Z,31.80
2023-02-12T10:30:06.613Z,32.54
2023-02-12T10:32:51.585Z,31.20
2023-02-12T10:35:36.206Z,30.72
2023-02-12T10:38:20.979Z,31.52
2023-02-12T10:41:05.664Z,31.57
2023-02-12T10:43:50.973Z,31.87
2023-02-12T10:46:35.724Z,32.79
2023-02-12T10:49:20.560Z,33.21
2023-02-12T10:52:05.374Z,32.96
2023-02-12T10:54:50.237Z,32.82
2023-02-12T10:57:34.987Z,32.02
2023-02-12T11:00:19.716Z,32.60
2023-02-12T11:03:04.570Z,32.59
2023-02-12T11:05:49.311Z,32.25
2023-02-12T11:08:34.013Z,32.98
2023-02-12T11:11:18.735Z,32.19
2023-02-12T11:14:03.553Z,32.23
2023-02-12T11:16:48.301Z,31.62
2023-02-12T11:19:33.106Z,31.84
2023-02-12T11:22:17.949Z,30.55
2023-02-12T11:25:02.866Z,31.12
2023-02-12T11:27:47.678Z,30.97
2023-02-12T11:30:32.674Z,30.20
2023-02-12T11:33:17.934Z,29.63
2023-02-12T11:36:04.436Z,29.23
2023-02-12T11:38:51.707Z,28.58
2023-02-12T11:41:36.511Z,29.48
2023-02-12T11:44:21.374Z,30.57
2023-02-12T11:47:06.193Z,29.93
2023-02-12T11:49:50.944Z,29.61
2023-02-12T11:52:35.770Z,29.94
2023-02-12T11:55:20.514Z,29.93
2023-02-12T11:58:05.916Z,30.04
2023-02-12T12:00:50.669Z,30.50
2023-02-12T12:03:35.589Z,30.04
2023-02-12T12:06:20.215Z,29.79
2023-02-12T12:09:04.926Z,30.32
2023-02-12T12:11:49.834Z,30.43
2023-02-12T12:14:34.628Z,30.57
2023-02-12T12:17:19.474Z,30.46
2023-02-12T12:20:04.567Z,29.60
2023-02-12T12:22:49.376Z,28.97
2023-02-12T12:25:33.985Z,28.80
2023-02-12T12:28:18.765Z,29.50
2023-02-12T12:31:03.567Z,29.20
2023-02-12T12:33:48.816Z,29.28
2023-02-12T12:36:33.854Z,29.60
2023-02-12T12:39:18.787Z,30.07
2023-02-12T12:42:03.604Z,29.39
2023-02-12T12:44:48.294Z,29.52
2023-02-12T12:47:33.026Z,29.58
2023-02-12T12:50:18.334Z,29.68
2023-02-12T12:53:03.027Z,29.54
2023-02-12T12:55:47.961Z,30.11
2023-02-12T12:58:32.770Z,30.09
2023-02-12T13:01:17.639Z,30.12
2023-02-12T13:04:02.246Z,29.84
2023-02-12T13:06:47.006Z,29.38
2023-02-12T13:09:31.761Z,29.55
2023-02-12T13:12:16.522Z,30.08
2023-02-12T13:15:01.190Z,30.07
2023-02-12T13:17:46.094Z,29.99
2023-02-12T13:20:31.229Z,29.79
2023-02-12T13:23:16.014Z,29.26
2023-02-12T13:26:00.853Z,28.64
2023-02-12T13:28:45.733Z,28.92
2023-02-12T13:31:33.417Z,29.51
2023-02-12T13:34:19.190Z,28.90
2023-02-12T13:37:03.911Z,29.07
2023-02-12T13:39:48.678Z,28.75
2023-02-12T13:42:33.515Z,29.26
2023-02-12T13:45:18.283Z,28.94
2023-02-12T13:48:03.166Z,28.03
2023-02-12T13:50:48.039Z,28.63
2023-02-12T13:53:32.845Z,28.74
2023-02-12T13:56:17.651Z,28.04
2023-02-12T13:59:02.437Z,28.18
2023-02-12T14:01:47.836Z,27.22
2023-02-12T14:04:32.779Z,27.37
2023-02-12T14:07:17.555Z,26.53
2023-02-12T14:10:02.436Z,27.71
2023-02-12T14:12:47.199Z,27.53
2023-02-12T14:15:32.034Z,27.74
2023-02-12T14:18:17.168Z,27.98
2023-02-12T14:21:01.969Z,28.51
2023-02-12T14:23:46.517Z,28.75
2023-02-12T14:26:31.175Z,28.78
2023-02-12T14:29:15.976Z,27.92
2023-02-12T14:32:00.973Z,27.28
2023-02-12T14:34:46.284Z,27.42
2023-02-12T14:37:31.044Z,27.75
2023-02-12T14:40:15.918Z,27.62
2023-02-12T14:43:00.574Z,27.71
2023-02-12T14:45:45.270Z,28.37
2023-02-12T14:48:29.959Z,28.85
2023-02-12T14:51:14.772Z,29.04
2023-02-12T14:53:59.562Z,29.46
2023-02-12T14:56:44.632Z,28.14
2023-02-12T14:59:29.422Z,28.13
2023-02-12T15:02:14.266Z,29.05
2023-02-12T15:04:59.580Z,29.80
2023-02-12T15:07:44.269Z,29.55
2023-02-12T15:10:29.108Z,29.08
2023-02-12T15:13:13.669Z,30.42
2023-02-12T15:15:58.745Z,30.81
2023-02-12T15:18:43.788Z,31.80
2023-02-12T15:21:28.735Z,34.56
2023-02-12T15:24:13.844Z,33.23
2023-02-12T15:26:58.646Z,35.02
2023-02-12T15:29:43.597Z,35.96
2023-02-12T15:32:28.300Z,36.26
2023-02-12T15:35:13.187Z,36.40
2023-02-12T15:37:57.954Z,35.80
2023-02-12T15:40:42.824Z,35.28
2023-02-12T15:43:27.646Z,36.67
2023-02-12T15:46:12.456Z,35.78
2023-02-12T15:48:57.158Z,36.01
2023-02-12T15:51:41.932Z,34.44
2023-02-12T15:54:26.766Z,33.40
2023-02-12T15:57:11.529Z,35.15
2023-02-12T15:59:56.199Z,35.95
2023-02-12T16:02:40.940Z,36.84
2023-02-12T16:05:25.688Z,36.82
2023-02-12T16:08:10.419Z,36.84
2023-02-12T16:10:55.220Z,37.66
2023-02-12T16:13:39.877Z,37.51
2023-02-12T16:16:24.861Z,38.50
2023-02-12T16:19:09.949Z,36.81
2023-02-12T16:21:54.842Z,35.48
2023-02-12T16:24:39.752Z,36.16
2023-02-12T16:27:24.514Z,36.86
2023-02-12T16:30:09.413Z,38.15
2023-02-12T16:32:54.153Z,39.52
2023-02-12T16:35:39.000Z,38.92
2023-02-12T16:38:23.783Z,39.22
2023-02-12T16:41:08.582Z,38.98
2023-02-12T16:43:53.386Z,38.40
2023-02-12T16:46:40.381Z,38.67
2023-02-12T16:49:25.675Z,39.07
2023-02-12T16:52:10.349Z,40.09
2023-02-12T16:54:55.073Z,39.92
2023-02-12T16:57:39.640Z,40.31
2023-02-12T17:00:24.727Z,41.21
2023-02-12T17:03:09.615Z,40.76
2023-02-12T17:05:54.917Z,40.81
2023-02-12T17:08:40.380Z,40.51
2023-02-12T17:11:25.161Z,40.77
2023-02-12T17:14:09.957Z,40.46
2023-02-12T17:16:54.768Z,40.20
2023-02-12T17:19:39.571Z,40.35
2023-02-12T17:22:24.442Z,41.11
2023-02-12T17:25:09.145Z,41.69
2023-02-12T17:27:55.011Z,41.67
2023-02-12T17:30:40.079Z,41.68
2023-02-12T17:33:24.907Z,41.85
2023-02-12T17:36:10.055Z,43.10
2023-02-12T17:38:54.842Z,43.20
2023-02-12T17:41:39.539Z,42.71
2023-02-12T17:44:24.339Z,42.93
2023-02-12T17:47:09.081Z,42.75
2023-02-12T17:49:54.357Z,43.52
2023-02-12T17:52:39.172Z,43.57
2023-02-12T17:55:24.042Z,43.07
2023-02-12T17:58:08.704Z,43.07
2023-02-12T18:00:53.431Z,42.74
2023-02-12T18:03:38.245Z,42.59
2023-02-12T18:06:23.066Z,42.18
2023-02-12T18:09:07.822Z,41.71
2023-02-12T18:11:52.545Z,41.68
2023-02-12T18:14:37.487Z,41.77
2023-02-12T18:17:22.242Z,41.15
2023-02-12T18:20:06.937Z,41.42
2023-02-12T18:22:51.713Z,41.30
2023-02-12T18:25:36.501Z,42.07
2023-02-12T18:28:21.298Z,42.11
2023-02-12T18:31:06.131Z,41.93
2023-02-12T18:33:51.516Z,41.74
2023-02-12T18:36:36.271Z,41.49
2023-02-12T18:39:21.093Z,41.65
2023-02-12T18:42:05.726Z,41.91
2023-02-12T18:44:50.577Z,42.01
2023-02-12T18:47:35.232Z,41.79
2023-02-12T18:50:20.089Z,42.24
2023-02-12T18:53:04.748Z,42.49
2023-02-12T18:55:49.654Z,42.83
2023-02-12T18:58:34.391Z,42.52
2023-02-12T19:01:19.251Z,42.44
2023-02-12T19:04:03.971Z,42.80
2023-02-12T19:06:48.678Z,43.09
2023-02-12T19:09:33.519Z,43.21
2023-02-12T19:12:18.109Z,43.01
2023-02-12T19:15:02.924Z,42.88
2023-02-12T19:17:47.573Z,43.07
2023-02-12T19:20:32.191Z,43.26
2023-02-12T19:23:16.961Z,43.19
2023-02-12T19:26:01.636Z,43.38
2023-02-12T19:28:46.478Z,43.26
2023-02-12T19:31:31.294Z,43.54
2023-02-12T19:34:16.673Z,42.94
2023-02-12T19:37:01.353Z,43.34
2023-02-12T19:39:46.240Z,42.94
2023-02-12T19:42:31.120Z,42.72
2023-02-12T19:45:15.891Z,43.08
2023-02-12T19:48:00.610Z,43.29
2023-02-12T19:50:45.496Z,42.94
2023-02-12T19:53:30.158Z,42.86
2023-02-12T19:56:15.018Z,43.09
2023-02-12T19:58:59.765Z,43.05
2023-02-12T20:01:44.620Z,42.49
2023-02-12T20:04:29.785Z,43.37
2023-02-12T20:07:14.388Z,43.25
2023-02-12T20:09:59.314Z,43.58
2023-02-12T20:12:44.030Z,43.53
2023-02-12T20:15:29.131Z,43.11
2023-02-12T20:18:14.128Z,43.76
2023-02-12T20:20:59.100Z,43.87
2023-02-12T20:23:43.802Z,43.62
2023-02-12T20:26:28.718Z,43.71
2023-02-12T20:29:13.445Z,43.83
2023-02-12T20:31:58.345Z,44.62
2023-02-12T20:34:50.918Z,44.42
2023-02-12T20:37:36.490Z,43.56
2023-02-12T20:40:21.253Z,44.79
2023-02-12T20:43:05.971Z,44.47
2023-02-12T20:45:50.826Z,44.65
2023-02-12T20:48:35.602Z,44.89
2023-02-12T20:51:20.840Z,44.78
2023-02-12T20:54:05.617Z,44.34
2023-02-12T20:56:50.525Z,44.49
2023-02-12T20:59:35.252Z,44.65
2023-02-12T21:02:20.154Z,44.78
2023-02-12T21:05:04.752Z,44.36
2023-02-12T21:07:49.487Z,44.42
2023-02-12T21:10:34.238Z,44.45
2023-02-12T21:13:18.936Z,44.15
2023-02-12T21:16:04.655Z,43.79
2023-02-12T21:18:49.654Z,44.01
2023-02-12T21:21:34.515Z,44.19
2023-02-12T21:24:19.186Z,44.54
2023-02-12T21:27:04.051Z,44.54
2023-02-12T21:29:48.831Z,44.27
2023-02-12T21:32:33.721Z,44.49
2023-02-12T21:35:18.925Z,44.21
2023-02-12T21:38:03.677Z,44.23
2023-02-12T21:40:48.388Z,44.84
2023-02-12T21:43:33.167Z,45.14
2023-02-12T21:46:18.389Z,44.95
2023-02-12T21:49:03.879Z,44.60
2023-02-12T21:51:48.765Z,44.60
2023-02-12T21:54:33.526Z,44.54
2023-02-12T21:57:18.333Z,44.74
2023-02-12T22:00:03.037Z,43.87
2023-02-12T22:02:47.933Z,44.12
2023-02-12T22:05:32.982Z,44.13
2023-02-12T22:08:17.777Z,43.80
2023-02-12T22:11:02.569Z,44.00
2023-02-12T22:13:47.344Z,44.31
2023-02-12T22:16:32.273Z,43.96
2023-02-12T22:19:16.988Z,45.05
2023-02-12T22:22:01.677Z,45.29
2023-02-12T22:24:46.398Z,45.56
2023-02-12T22:27:31.340Z,44.54
2023-02-12T22:30:15.948Z,44.76
2023-02-12T22:33:00.565Z,44.83
2023-02-12T22:35:45.346Z,44.81
2023-02-12T22:38:30.104Z,44.74
2023-02-12T22:41:14.784Z,44.67
2023-02-12T22:43:59.435Z,44.65
2023-02-12T22:46:44.300Z,44.20
2023-02-12T22:49:28.952Z,45.11
2023-02-12T22:52:13.724Z,44.69
2023-02-12T22:54:58.492Z,44.61
2023-02-12T22:57:43.311Z,44.26
2023-02-12T23:00:28.021Z,43.87
2023-02-12T23:03:12.814Z,44.04
2023-02-12T23:05:57.523Z,44.77
2023-02-12T23:08:42.224Z,44.20
2023-02-12T23:11:27.109Z,44.17
2023-02-12T23:14:11.784Z,44.33
2023-02-12T23:16:56.662Z,44.48
2023-02-12T23:19:41.795Z,44.44
2023-02-12T23:22:26.578Z,44.36
2023-02-12T23:25:11.437Z,44.41
2023-02-12T23:27:56.257Z,44.07
2023-02-12T23:30:41.023Z,44.08
2023-02-12T23:33:26.303Z,43.31
2023-02-12T23:36:11.183Z,43.08
2023-02-12T23:38:55.781Z,43.64
2023-02-12T23:41:40.517Z,43.99
2023-02-12T23:44:25.157Z,43.59
2023-02-12T23:47:10.039Z,44.09
2023-02-12T23:49:54.716Z,44.10
2023-02-12T23:52:39.412Z,43.70
2023-02-12T23:55:24.028Z,43.33
2023-02-12T23:58:08.702Z,43.83
